createdAt,value
2018-09-30T00:00:14.408Z,0
2018-09-30T00:00:54.974Z,0
2018-09-30T00:01:35.514Z,0
2018-09-30T00:02:16.071Z,0
2018-09-30T00:02:56.622Z,0
2018-09-30T00:03:37.171Z,0
2018-09-30T00:04:17.728Z,0
2018-09-30T00:04:58.275Z,0
2018-09-30T00:05:38.854Z,0
2018-09-30T00:06:19.456Z,0
2018-09-30T00:07:00.104Z,0
2018-09-30T00:07:40.671Z,0
2018-09-30T00:08:21.323Z,0
2018-09-30T00:09:01.925Z,0
2018-09-30T00:09:42.490Z,0
2018-09-30T00:10:23.050Z,0
2018-09-30T00:11:03.616Z,0
2018-09-30T00:11:44.186Z,0
2018-09-30T00:12:24.748Z,0
2018-09-30T00:13:05.306Z,0
2018-09-30T00:13:45.875Z,0
2018-09-30T00:14:26.428Z,0
2018-09-30T00:15:06.984Z,0
2018-09-30T00:15:47.564Z,0
2018-09-30T00:16:28.115Z,0
2018-09-30T00:17:08.702Z,0
2018-09-30T00:17:49.252Z,0
2018-09-30T00:18:29.800Z,0
2018-09-30T00:19:10.367Z,0
2018-09-30T00:19:50.963Z,0
2018-09-30T00:20:31.503Z,0
2018-09-30T00:21:12.075Z,0
2018-09-30T00:21:52.626Z,0
2018-09-30T00:22:33.190Z,0
2018-09-30T00:23:13.882Z,0
2018-09-30T00:23:54.371Z,0
2018-09-30T00:24:34.920Z,0
2018-09-30T00:25:15.470Z,0
2018-09-30T00:25:56.093Z,0
2018-09-30T00:26:36.671Z,0
2018-09-30T00:27:17.229Z,0
2018-09-30T00:27:57.789Z,0
2018-09-30T00:28:38.344Z,0
2018-09-30T00:29:18.904Z,0
2018-09-30T00:29:59.456Z,0
2018-09-30T00:30:40.009Z,0
2018-09-30T00:31:20.572Z,0
2018-09-30T00:32:01.136Z,0
2018-09-30T00:32:41.700Z,0
2018-09-30T00:33:22.248Z,0
2018-09-30T00:34:02.813Z,0
2018-09-30T00:34:43.395Z,0
2018-09-30T00:35:23.933Z,0
2018-09-30T00:36:04.522Z,0
2018-09-30T00:36:45.116Z,0
2018-09-30T00:37:25.645Z,0
2018-09-30T00:38:06.273Z,0
2018-09-30T00:38:46.831Z,0
2018-09-30T00:39:27.390Z,0
2018-09-30T00:40:07.949Z,0
2018-09-30T00:40:48.502Z,0
2018-09-30T00:41:29.065Z,0
2018-09-30T00:42:09.623Z,0
2018-09-30T00:42:50.173Z,0
2018-09-30T00:43:30.738Z,0
2018-09-30T00:44:11.291Z,0
2018-09-30T00:44:51.844Z,0
2018-09-30T00:45:32.406Z,0
2018-09-30T00:46:12.978Z,0
2018-09-30T00:46:53.524Z,0
2018-09-30T00:47:34.097Z,0
2018-09-30T00:48:14.657Z,0
2018-09-30T00:48:55.210Z,0
2018-09-30T00:49:35.812Z,0
2018-09-30T00:50:16.323Z,0
2018-09-30T00:50:56.885Z,0
2018-09-30T00:51:37.445Z,0
2018-09-30T00:52:18.005Z,0
2018-09-30T00:52:58.578Z,0
2018-09-30T00:53:39.153Z,0
2018-09-30T00:54:19.712Z,0
2018-09-30T00:55:00.270Z,0
2018-09-30T00:55:40.833Z,0
2018-09-30T00:56:21.394Z,0
2018-09-30T00:57:01.948Z,0
2018-09-30T00:57:42.505Z,0
2018-09-30T00:58:23.061Z,0
2018-09-30T00:59:03.637Z,0
2018-09-30T00:59:44.228Z,0
2018-09-30T01:00:24.797Z,0
2018-09-30T01:01:05.358Z,0
2018-09-30T01:01:45.931Z,0
2018-09-30T01:02:26.560Z,0
2018-09-30T01:03:07.171Z,0
2018-09-30T01:03:47.759Z,0
2018-09-30T01:04:28.332Z,0
2018-09-30T01:05:08.868Z,0
2018-09-30T01:05:49.437Z,0
2018-09-30T01:06:30.017Z,0
2018-09-30T01:07:10.571Z,0
2018-09-30T01:07:51.130Z,0
2018-09-30T01:08:31.680Z,0
2018-09-30T01:09:12.287Z,0
2018-09-30T01:09:52.863Z,0
2018-09-30T01:10:33.454Z,0
2018-09-30T01:11:14.015Z,0
2018-09-30T01:11:54.577Z,0
2018-09-30T01:12:35.179Z,0
2018-09-30T01:13:15.757Z,0
2018-09-30T01:13:56.354Z,0
2018-09-30T01:14:36.931Z,0
2018-09-30T01:15:17.486Z,0
2018-09-30T01:15:58.057Z,0
2018-09-30T01:16:38.621Z,0
2018-09-30T01:17:19.184Z,0
2018-09-30T01:17:59.745Z,0
2018-09-30T01:18:40.307Z,0
2018-09-30T01:19:20.862Z,0
2018-09-30T01:20:01.416Z,0
2018-09-30T01:20:42.012Z,0
2018-09-30T01:21:22.605Z,0
2018-09-30T01:22:03.183Z,0
2018-09-30T01:22:43.724Z,0
2018-09-30T01:23:24.299Z,0
2018-09-30T01:24:04.857Z,0
2018-09-30T01:24:45.433Z,0
2018-09-30T01:25:26.008Z,0
2018-09-30T01:26:06.587Z,0
2018-09-30T01:26:47.132Z,0
2018-09-30T01:27:27.695Z,0
2018-09-30T01:28:08.268Z,0
2018-09-30T01:28:48.845Z,0
2018-09-30T01:29:29.399Z,0
2018-09-30T01:30:09.990Z,0
2018-09-30T01:30:50.550Z,0
2018-09-30T01:31:31.131Z,0
2018-09-30T01:32:11.689Z,0
2018-09-30T01:32:52.264Z,0
2018-09-30T01:33:32.830Z,0
2018-09-30T01:34:13.386Z,0
2018-09-30T01:34:53.946Z,0
2018-09-30T01:35:34.522Z,0
2018-09-30T01:36:15.117Z,0
2018-09-30T01:36:55.683Z,0
2018-09-30T01:37:36.239Z,0
2018-09-30T01:38:16.789Z,0
2018-09-30T01:38:57.353Z,0
2018-09-30T01:39:37.917Z,0
2018-09-30T01:40:18.466Z,0
2018-09-30T01:40:59.020Z,0
2018-09-30T01:41:39.573Z,0
2018-09-30T01:42:20.150Z,0
2018-09-30T01:43:00.716Z,0
2018-09-30T01:43:41.275Z,0
2018-09-30T01:44:21.838Z,0
2018-09-30T01:45:02.397Z,0
2018-09-30T01:45:42.952Z,0
2018-09-30T01:46:23.530Z,0
2018-09-30T01:47:04.090Z,0
2018-09-30T01:47:44.650Z,0
2018-09-30T01:48:25.208Z,0
2018-09-30T01:49:05.772Z,0
2018-09-30T01:49:46.331Z,0
2018-09-30T01:50:26.892Z,0
2018-09-30T01:51:07.450Z,0
2018-09-30T01:51:48.018Z,0
2018-09-30T01:52:28.601Z,0
2018-09-30T01:53:09.163Z,0
2018-09-30T01:53:49.720Z,0
2018-09-30T01:54:30.283Z,0
2018-09-30T01:55:10.893Z,0
2018-09-30T01:55:51.460Z,0
2018-09-30T01:56:32.026Z,0
2018-09-30T01:57:12.583Z,0
2018-09-30T01:57:53.164Z,0
2018-09-30T01:58:33.719Z,0
2018-09-30T01:59:14.276Z,0
2018-09-30T01:59:54.832Z,0
2018-09-30T02:00:35.388Z,0
2018-09-30T02:01:15.999Z,0
2018-09-30T02:01:56.566Z,0
2018-09-30T02:02:37.126Z,0
2018-09-30T02:03:17.683Z,0
2018-09-30T02:03:58.234Z,0
2018-09-30T02:04:38.786Z,0
2018-09-30T02:05:19.351Z,0
2018-09-30T02:05:59.919Z,0
2018-09-30T02:06:40.487Z,0
2018-09-30T02:07:21.040Z,0
2018-09-30T02:08:01.619Z,0
2018-09-30T02:08:42.181Z,0
2018-09-30T02:09:22.742Z,0
2018-09-30T02:10:03.302Z,0
2018-09-30T02:10:43.854Z,0
2018-09-30T02:11:24.419Z,0
2018-09-30T02:12:04.980Z,0
2018-09-30T02:12:45.583Z,0
2018-09-30T02:13:26.092Z,0
2018-09-30T02:14:06.660Z,0
2018-09-30T02:14:47.218Z,0
2018-09-30T02:15:27.777Z,0
2018-09-30T02:16:08.348Z,0
2018-09-30T02:16:48.906Z,0
2018-09-30T02:17:29.467Z,0
2018-09-30T02:18:10.088Z,0
2018-09-30T02:18:50.623Z,0
2018-09-30T02:19:31.201Z,0
2018-09-30T02:20:11.790Z,0
2018-09-30T02:20:52.348Z,0
2018-09-30T02:21:32.904Z,0
2018-09-30T02:22:13.480Z,0
2018-09-30T02:22:54.036Z,0
2018-09-30T02:23:34.612Z,0
2018-09-30T02:24:15.167Z,0
2018-09-30T02:24:55.781Z,0
2018-09-30T02:25:36.343Z,0
2018-09-30T02:26:16.891Z,0
2018-09-30T02:26:57.466Z,0
2018-09-30T02:27:38.006Z,0
2018-09-30T02:28:18.551Z,0
2018-09-30T02:28:59.118Z,0
2018-09-30T02:29:39.675Z,0
2018-09-30T02:30:20.261Z,0
2018-09-30T02:31:00.826Z,0
2018-09-30T02:31:41.382Z,0
2018-09-30T02:32:21.939Z,0
2018-09-30T02:33:02.500Z,0
2018-09-30T02:33:43.058Z,0
2018-09-30T02:34:23.657Z,0
2018-09-30T02:35:04.274Z,0
2018-09-30T02:35:44.844Z,0
2018-09-30T02:36:25.396Z,0
2018-09-30T02:37:06.138Z,0
2018-09-30T02:37:46.675Z,0
2018-09-30T02:38:27.225Z,0
2018-09-30T02:39:07.794Z,0
2018-09-30T02:39:48.374Z,0
2018-09-30T02:40:28.932Z,0
2018-09-30T02:41:09.488Z,0
2018-09-30T02:41:50.054Z,0
2018-09-30T02:42:30.637Z,0
2018-09-30T02:43:11.173Z,0
2018-09-30T02:43:51.719Z,0
2018-09-30T02:44:32.279Z,0
2018-09-30T02:45:12.837Z,0
2018-09-30T02:45:53.405Z,0
2018-09-30T02:46:33.972Z,0
2018-09-30T02:47:14.536Z,0
2018-09-30T02:47:55.109Z,0
2018-09-30T02:48:35.678Z,0
2018-09-30T02:49:16.232Z,0
2018-09-30T02:49:56.796Z,0
2018-09-30T02:50:37.351Z,0
2018-09-30T02:51:17.899Z,0
2018-09-30T02:51:58.455Z,0
2018-09-30T02:52:39.014Z,0
2018-09-30T02:53:19.593Z,0
2018-09-30T02:54:00.146Z,0
2018-09-30T02:54:40.726Z,0
2018-09-30T02:55:21.279Z,0
2018-09-30T02:56:01.879Z,0
2018-09-30T02:56:42.400Z,0
2018-09-30T02:57:22.950Z,0
2018-09-30T02:58:03.505Z,0
2018-09-30T02:58:44.075Z,0
2018-09-30T02:59:24.634Z,0
2018-09-30T03:00:05.209Z,0
2018-09-30T03:00:45.767Z,0
2018-09-30T03:01:26.345Z,0
2018-09-30T03:02:06.920Z,0
2018-09-30T03:02:47.498Z,0
2018-09-30T03:03:28.053Z,0
2018-09-30T03:04:08.623Z,0
2018-09-30T03:04:49.198Z,0
2018-09-30T03:05:29.757Z,0
2018-09-30T03:06:10.323Z,0
2018-09-30T03:06:50.868Z,0
2018-09-30T03:07:31.432Z,0
2018-09-30T03:08:11.986Z,0
2018-09-30T03:08:52.546Z,0
2018-09-30T03:09:33.095Z,0
2018-09-30T03:10:13.667Z,0
2018-09-30T03:10:54.219Z,0
2018-09-30T03:11:34.783Z,0
2018-09-30T03:12:15.332Z,0
2018-09-30T03:12:55.902Z,0
2018-09-30T03:13:36.456Z,0
2018-09-30T03:14:17.018Z,0
2018-09-30T03:14:57.581Z,0
2018-09-30T03:15:38.128Z,0
2018-09-30T03:16:18.713Z,0
2018-09-30T03:16:59.315Z,0
2018-09-30T03:17:39.871Z,0
2018-09-30T03:18:20.520Z,0
2018-09-30T03:19:01.068Z,0
2018-09-30T03:19:41.656Z,0
2018-09-30T03:20:22.290Z,0
2018-09-30T03:21:02.855Z,0
2018-09-30T03:21:43.406Z,0
2018-09-30T03:22:23.959Z,0
2018-09-30T03:23:04.518Z,0
2018-09-30T03:23:45.094Z,0
2018-09-30T03:24:25.655Z,0
2018-09-30T03:25:06.212Z,0
2018-09-30T03:25:46.775Z,0
2018-09-30T03:26:27.335Z,0
2018-09-30T03:27:07.919Z,0
2018-09-30T03:27:48.514Z,0
2018-09-30T03:28:29.060Z,0
2018-09-30T03:29:09.628Z,0
2018-09-30T03:29:50.201Z,0
2018-09-30T03:30:30.773Z,0
2018-09-30T03:31:11.317Z,0
2018-09-30T03:31:51.877Z,0
2018-09-30T03:32:32.435Z,0
2018-09-30T03:33:13.029Z,0
2018-09-30T03:33:53.587Z,0
2018-09-30T03:34:34.166Z,0
2018-09-30T03:35:14.779Z,0
2018-09-30T03:35:55.328Z,0
2018-09-30T03:36:35.886Z,0
2018-09-30T03:37:16.435Z,0
2018-09-30T03:37:56.998Z,0
2018-09-30T03:38:37.568Z,0
2018-09-30T03:39:18.122Z,0
2018-09-30T03:39:58.692Z,0
2018-09-30T03:40:39.303Z,0
2018-09-30T03:41:19.852Z,0
2018-09-30T03:42:00.410Z,0
2018-09-30T03:42:40.956Z,0
2018-09-30T03:43:21.515Z,0
2018-09-30T03:44:02.090Z,0
2018-09-30T03:44:42.642Z,0
2018-09-30T03:45:23.249Z,0
2018-09-30T03:46:03.799Z,0
2018-09-30T03:46:44.377Z,0
2018-09-30T03:47:24.936Z,0
2018-09-30T03:48:05.518Z,0
2018-09-30T03:48:46.060Z,0
2018-09-30T03:49:26.630Z,0
2018-09-30T03:50:07.199Z,0
2018-09-30T03:50:47.749Z,0
2018-09-30T03:51:28.311Z,0
2018-09-30T03:52:08.862Z,0
2018-09-30T03:52:49.415Z,0
2018-09-30T03:53:29.973Z,0
2018-09-30T03:54:10.545Z,0
2018-09-30T03:54:51.119Z,0
2018-09-30T03:55:31.701Z,0
2018-09-30T03:56:12.258Z,0
2018-09-30T03:56:52.818Z,0
2018-09-30T03:57:33.403Z,0
2018-09-30T03:58:13.965Z,0
2018-09-30T03:58:54.504Z,0
2018-09-30T03:59:35.068Z,0
2018-09-30T04:00:15.619Z,0
2018-09-30T04:00:56.177Z,0
2018-09-30T04:01:36.761Z,0
2018-09-30T04:02:17.299Z,0
2018-09-30T04:02:57.854Z,0
2018-09-30T04:03:38.408Z,0
2018-09-30T04:04:19.061Z,0
2018-09-30T04:04:59.635Z,0
2018-09-30T04:05:40.192Z,0
2018-09-30T04:06:20.747Z,0
2018-09-30T04:07:01.330Z,0
2018-09-30T04:07:41.891Z,0
2018-09-30T04:08:22.448Z,0
2018-09-30T04:09:03.026Z,0
2018-09-30T04:09:43.680Z,0
2018-09-30T04:10:24.202Z,0
2018-09-30T04:11:04.771Z,0
2018-09-30T04:11:45.341Z,0
2018-09-30T04:12:25.905Z,0
2018-09-30T04:13:06.466Z,0
2018-09-30T04:13:47.031Z,0
2018-09-30T04:14:27.587Z,0
2018-09-30T04:15:08.138Z,0
2018-09-30T04:15:48.714Z,0
2018-09-30T04:16:29.297Z,0
2018-09-30T04:17:09.985Z,0
2018-09-30T04:17:50.405Z,0
2018-09-30T04:18:30.970Z,0
2018-09-30T04:19:11.521Z,0
2018-09-30T04:19:52.079Z,0
2018-09-30T04:20:32.636Z,0
2018-09-30T04:21:13.196Z,0
2018-09-30T04:21:53.760Z,0
2018-09-30T04:22:34.320Z,0
2018-09-30T04:23:14.872Z,0
2018-09-30T04:23:55.418Z,0
2018-09-30T04:24:35.988Z,0
2018-09-30T04:25:16.567Z,0
2018-09-30T04:25:57.134Z,0
2018-09-30T04:26:37.691Z,0
2018-09-30T04:27:18.244Z,0
2018-09-30T04:27:58.803Z,0
2018-09-30T04:28:39.358Z,0
2018-09-30T04:29:19.914Z,0
2018-09-30T04:30:00.471Z,0
2018-09-30T04:30:41.066Z,0
2018-09-30T04:31:21.627Z,0
2018-09-30T04:32:02.197Z,0
2018-09-30T04:32:42.759Z,4
2018-09-30T04:33:23.355Z,4
2018-09-30T04:34:03.870Z,4
2018-09-30T04:34:44.433Z,0
2018-09-30T04:35:24.996Z,0
2018-09-30T04:36:05.532Z,4
2018-09-30T04:36:46.108Z,4
2018-09-30T04:37:26.665Z,4
2018-09-30T04:38:07.223Z,0
2018-09-30T04:38:47.788Z,4
2018-09-30T04:39:28.344Z,4
2018-09-30T04:40:08.901Z,4
2018-09-30T04:40:49.473Z,8
2018-09-30T04:41:30.054Z,4
2018-09-30T04:42:10.622Z,8
2018-09-30T04:42:51.168Z,8
2018-09-30T04:43:31.724Z,12
2018-09-30T04:44:12.280Z,8
2018-09-30T04:44:52.833Z,8
2018-09-30T04:45:33.395Z,16
2018-09-30T04:46:13.952Z,12
2018-09-30T04:46:54.502Z,16
2018-09-30T04:47:35.091Z,20
2018-09-30T04:48:15.644Z,24
2018-09-30T04:48:56.200Z,24
2018-09-30T04:49:36.752Z,28
2018-09-30T04:50:17.314Z,32
2018-09-30T04:50:57.884Z,36
2018-09-30T04:51:38.448Z,40
2018-09-30T04:52:19.025Z,44
2018-09-30T04:52:59.583Z,52
2018-09-30T04:53:40.148Z,56
2018-09-30T04:54:20.705Z,64
2018-09-30T04:55:01.283Z,64
2018-09-30T04:55:41.830Z,72
2018-09-30T04:56:22.385Z,76
2018-09-30T04:57:02.939Z,80
2018-09-30T04:57:43.520Z,84
2018-09-30T04:58:24.076Z,84
2018-09-30T04:59:04.626Z,88
2018-09-30T04:59:45.200Z,96
2018-09-30T05:00:25.761Z,100
2018-09-30T05:01:06.322Z,104
2018-09-30T05:01:46.881Z,108
2018-09-30T05:02:27.451Z,112
2018-09-30T05:03:07.993Z,120
2018-09-30T05:03:48.567Z,124
2018-09-30T05:04:29.133Z,132
2018-09-30T05:05:09.683Z,140
2018-09-30T05:05:50.350Z,148
2018-09-30T05:06:30.789Z,160
2018-09-30T05:07:11.366Z,172
2018-09-30T05:07:51.916Z,180
2018-09-30T05:08:32.467Z,196
2018-09-30T05:09:13.019Z,212
2018-09-30T05:09:53.613Z,224
2018-09-30T05:10:34.186Z,240
2018-09-30T05:11:14.741Z,252
2018-09-30T05:11:55.300Z,268
2018-09-30T05:12:35.867Z,276
2018-09-30T05:13:16.420Z,284
2018-09-30T05:13:56.981Z,296
2018-09-30T05:14:37.528Z,308
2018-09-30T05:15:18.096Z,320
2018-09-30T05:15:58.702Z,328
2018-09-30T05:16:39.215Z,340
2018-09-30T05:17:19.779Z,352
2018-09-30T05:18:00.350Z,364
2018-09-30T05:18:40.901Z,376
2018-09-30T05:19:21.466Z,388
2018-09-30T05:20:02.029Z,400
2018-09-30T05:20:42.574Z,416
2018-09-30T05:21:23.139Z,428
2018-09-30T05:22:03.689Z,444
2018-09-30T05:22:44.265Z,460
2018-09-30T05:23:24.813Z,476
2018-09-30T05:24:05.361Z,504
2018-09-30T05:24:45.926Z,528
2018-09-30T05:25:26.508Z,556
2018-09-30T05:26:07.078Z,580
2018-09-30T05:26:47.651Z,608
2018-09-30T05:27:28.212Z,640
2018-09-30T05:28:08.760Z,676
2018-09-30T05:28:49.325Z,704
2018-09-30T05:29:29.884Z,736
2018-09-30T05:30:10.439Z,768
2018-09-30T05:30:50.994Z,796
2018-09-30T05:31:31.547Z,824
2018-09-30T05:32:12.110Z,860
2018-09-30T05:32:52.674Z,892
2018-09-30T05:33:33.239Z,932
2018-09-30T05:34:13.800Z,968
2018-09-30T05:34:54.344Z,1000
2018-09-30T05:35:34.901Z,1028
2018-09-30T05:36:15.449Z,1044
2018-09-30T05:36:55.998Z,1064
2018-09-30T05:37:36.554Z,1072
2018-09-30T05:38:17.116Z,1088
2018-09-30T05:38:57.670Z,1100
2018-09-30T05:39:38.243Z,1112
2018-09-30T05:40:18.805Z,1132
2018-09-30T05:40:59.362Z,1144
2018-09-30T05:41:39.926Z,1152
2018-09-30T05:42:20.492Z,1152
2018-09-30T05:43:01.045Z,1148
2018-09-30T05:43:41.614Z,1140
2018-09-30T05:44:22.176Z,1124
2018-09-30T05:45:02.730Z,1100
2018-09-30T05:45:43.307Z,1068
2018-09-30T05:46:23.845Z,1044
2018-09-30T05:47:04.408Z,1040
2018-09-30T05:47:44.980Z,1052
2018-09-30T05:48:25.541Z,1068
2018-09-30T05:49:06.109Z,1088
2018-09-30T05:49:46.662Z,1120
2018-09-30T05:50:27.221Z,1152
2018-09-30T05:51:07.809Z,1168
2018-09-30T05:51:48.352Z,1176
2018-09-30T05:52:28.903Z,1192
2018-09-30T05:53:09.473Z,1212
2018-09-30T05:53:50.041Z,1232
2018-09-30T05:54:30.608Z,1252
2018-09-30T05:55:11.175Z,1292
2018-09-30T05:55:51.724Z,1340
2018-09-30T05:56:32.282Z,1388
2018-09-30T05:57:12.841Z,1432
2018-09-30T05:57:53.470Z,1464
2018-09-30T05:58:33.976Z,1488
2018-09-30T05:59:14.537Z,1524
2018-09-30T05:59:55.098Z,1556
2018-09-30T06:00:35.654Z,1564
2018-09-30T06:01:16.214Z,1576
2018-09-30T06:01:56.793Z,1580
2018-09-30T06:02:37.348Z,1592
2018-09-30T06:03:17.912Z,1604
2018-09-30T06:03:58.535Z,1616
2018-09-30T06:04:39.027Z,1620
2018-09-30T06:05:19.874Z,1624
2018-09-30T06:06:00.460Z,1608
2018-09-30T06:06:41.022Z,1576
2018-09-30T06:07:21.619Z,1556
2018-09-30T06:08:02.618Z,1576
2018-09-30T06:08:43.081Z,1612
2018-09-30T06:09:23.759Z,1624
2018-09-30T06:10:04.608Z,1636
2018-09-30T06:10:45.141Z,1680
2018-09-30T06:11:25.751Z,1744
2018-09-30T06:12:06.309Z,1784
2018-09-30T06:12:47.335Z,1800
2018-09-30T06:13:27.575Z,1820
2018-09-30T06:14:08.277Z,1844
2018-09-30T06:14:48.676Z,1892
2018-09-30T06:15:29.231Z,1936
2018-09-30T06:16:09.788Z,1980
2018-09-30T06:16:50.341Z,2020
2018-09-30T06:17:30.904Z,2064
2018-09-30T06:18:11.462Z,2084
2018-09-30T06:18:52.010Z,2092
2018-09-30T06:19:32.558Z,2112
2018-09-30T06:20:13.120Z,2148
2018-09-30T06:20:53.674Z,2204
2018-09-30T06:21:34.230Z,2292
2018-09-30T06:22:14.782Z,2368
2018-09-30T06:22:55.336Z,2400
2018-09-30T06:23:35.915Z,2424
2018-09-30T06:24:16.579Z,2448
2018-09-30T06:24:57.047Z,2456
2018-09-30T06:25:37.593Z,2444
2018-09-30T06:26:18.147Z,2424
2018-09-30T06:26:58.830Z,2484
2018-09-30T06:27:39.401Z,2540
2018-09-30T06:28:19.980Z,2540
2018-09-30T06:29:00.541Z,2540
2018-09-30T06:29:41.083Z,2532
2018-09-30T06:30:21.649Z,2524
2018-09-30T06:31:02.194Z,2512
2018-09-30T06:31:42.880Z,2512
2018-09-30T06:32:23.371Z,2492
2018-09-30T06:33:03.953Z,2476
2018-09-30T06:33:44.516Z,2452
2018-09-30T06:34:25.087Z,2416
2018-09-30T06:35:05.640Z,2380
2018-09-30T06:35:46.200Z,2348
2018-09-30T06:36:26.799Z,2292
2018-09-30T06:37:07.388Z,2316
2018-09-30T06:37:47.961Z,2300
2018-09-30T06:38:28.526Z,2288
2018-09-30T06:39:09.075Z,2264
2018-09-30T06:39:49.630Z,2248
2018-09-30T06:40:30.257Z,2284
2018-09-30T06:41:10.744Z,2316
2018-09-30T06:41:51.308Z,2332
2018-09-30T06:42:31.863Z,2340
2018-09-30T06:43:12.425Z,2348
2018-09-30T06:43:52.996Z,2340
2018-09-30T06:44:33.560Z,2356
2018-09-30T06:45:14.149Z,2376
2018-09-30T06:45:54.710Z,2392
2018-09-30T06:46:35.289Z,2436
2018-09-30T06:47:15.838Z,2468
2018-09-30T06:47:56.461Z,2480
2018-09-30T06:48:36.996Z,2500
2018-09-30T06:49:17.613Z,2504
2018-09-30T06:49:58.217Z,2512
2018-09-30T06:50:38.766Z,2524
2018-09-30T06:51:19.318Z,2548
2018-09-30T06:51:59.881Z,2568
2018-09-30T06:52:40.433Z,2568
2018-09-30T06:53:21.028Z,2556
2018-09-30T06:54:01.599Z,2588
2018-09-30T06:54:42.147Z,2624
2018-09-30T06:55:22.710Z,2656
2018-09-30T06:56:03.267Z,2680
2018-09-30T06:56:43.860Z,2712
2018-09-30T06:57:24.410Z,2752
2018-09-30T06:58:04.953Z,2772
2018-09-30T06:58:45.518Z,2804
2018-09-30T06:59:26.079Z,2816
2018-09-30T07:00:06.677Z,2836
2018-09-30T07:00:47.251Z,2860
2018-09-30T07:01:27.800Z,2868
2018-09-30T07:02:08.351Z,2896
2018-09-30T07:02:48.903Z,2888
2018-09-30T07:03:29.462Z,2904
2018-09-30T07:04:10.024Z,2932
2018-09-30T07:04:50.639Z,2936
2018-09-30T07:05:31.143Z,2952
2018-09-30T07:06:11.707Z,2972
2018-09-30T07:06:52.277Z,3000
2018-09-30T07:07:32.877Z,3024
2018-09-30T07:08:13.433Z,3060
2018-09-30T07:08:53.998Z,3096
2018-09-30T07:09:34.549Z,3156
2018-09-30T07:10:15.106Z,3192
2018-09-30T07:10:55.730Z,3204
2018-09-30T07:11:36.274Z,3212
2018-09-30T07:12:16.833Z,3628
2018-09-30T07:12:57.385Z,3808
2018-09-30T07:13:37.957Z,7084
2018-09-30T07:14:18.512Z,5832
2018-09-30T07:14:59.108Z,5152
2018-09-30T07:15:39.700Z,4192
2018-09-30T07:16:20.240Z,4460
2018-09-30T07:17:00.878Z,5192
2018-09-30T07:17:41.372Z,8168
2018-09-30T07:18:21.935Z,12408
2018-09-30T07:19:02.494Z,35648
2018-09-30T07:19:43.059Z,30752
2018-09-30T07:20:23.636Z,42208
2018-09-30T07:21:04.219Z,49600
2018-09-30T07:21:44.786Z,65184
2018-09-30T07:22:25.434Z,82432
2018-09-30T07:23:05.893Z,85024
2018-09-30T07:23:46.449Z,89376
2018-09-30T07:24:27.003Z,91680
2018-09-30T07:25:07.580Z,93152
2018-09-30T07:25:48.129Z,93856
2018-09-30T07:26:28.681Z,97536
2018-09-30T07:27:09.248Z,98112
2018-09-30T07:27:49.831Z,96320
2018-09-30T07:28:30.400Z,94208
2018-09-30T07:29:10.981Z,93312
2018-09-30T07:29:51.555Z,95008
2018-09-30T07:30:32.112Z,96576
2018-09-30T07:31:12.681Z,97376
2018-09-30T07:31:53.246Z,97184
2018-09-30T07:32:33.807Z,95392
2018-09-30T07:33:14.381Z,96992
2018-09-30T07:33:55.083Z,98080
2018-09-30T07:34:35.499Z,96256
2018-09-30T07:35:16.066Z,96096
2018-09-30T07:35:56.636Z,98688
2018-09-30T07:36:37.270Z,99392
2018-09-30T07:37:17.843Z,94880
2018-09-30T07:37:58.421Z,91712
2018-09-30T07:38:38.974Z,92160
2018-09-30T07:39:19.578Z,95936
2018-09-30T07:40:00.150Z,99776
2018-09-30T07:40:40.751Z,100800
2018-09-30T07:41:21.351Z,102816
2018-09-30T07:42:01.948Z,102784
2018-09-30T07:42:42.574Z,101824
2018-09-30T07:43:23.180Z,100352
2018-09-30T07:44:03.804Z,96768
2018-09-30T07:44:44.437Z,94048
2018-09-30T07:45:24.997Z,97760
2018-09-30T07:46:05.577Z,103360
2018-09-30T07:46:46.172Z,100480
2018-09-30T07:47:26.731Z,98752
2018-09-30T07:48:07.313Z,98880
2018-09-30T07:48:47.884Z,97632
2018-09-30T07:49:28.449Z,96288
2018-09-30T07:50:09.053Z,92864
2018-09-30T07:50:49.616Z,91200
2018-09-30T07:51:30.308Z,88512
2018-09-30T07:52:10.916Z,87520
2018-09-30T07:52:51.483Z,89408
2018-09-30T07:53:32.067Z,91136
2018-09-30T07:54:12.630Z,91296
2018-09-30T07:54:53.211Z,91424
2018-09-30T07:55:33.800Z,90016
2018-09-30T07:56:14.403Z,88896
2018-09-30T07:56:54.959Z,87840
2018-09-30T07:57:35.526Z,89792
2018-09-30T07:58:16.158Z,90112
2018-09-30T07:58:56.745Z,91808
2018-09-30T07:59:37.327Z,90336
2018-09-30T08:00:17.894Z,91008
2018-09-30T08:00:58.511Z,89440
2018-09-30T08:01:39.157Z,87232
2018-09-30T08:02:19.725Z,84672
2018-09-30T08:03:00.288Z,86720
2018-09-30T08:03:40.864Z,88288
2018-09-30T08:04:21.554Z,87680
2018-09-30T08:05:02.119Z,87040
2018-09-30T08:05:42.713Z,87296
2018-09-30T08:06:23.297Z,87616
2018-09-30T08:07:03.869Z,86048
2018-09-30T08:07:44.448Z,84960
2018-09-30T08:08:25.015Z,84224
2018-09-30T08:09:05.603Z,85952
2018-09-30T08:09:46.251Z,85216
2018-09-30T08:10:26.815Z,84896
2018-09-30T08:11:07.375Z,84640
2018-09-30T08:11:47.987Z,85248
2018-09-30T08:12:28.567Z,80448
2018-09-30T08:13:09.166Z,75648
2018-09-30T08:13:49.745Z,69568
2018-09-30T08:14:30.343Z,65216
2018-09-30T08:15:10.911Z,60928
2018-09-30T08:15:51.527Z,57824
2018-09-30T08:16:32.227Z,54624
2018-09-30T08:17:12.736Z,50912
2018-09-30T08:17:53.335Z,47168
2018-09-30T08:18:33.934Z,44512
2018-09-30T08:19:14.525Z,41536
2018-09-30T08:19:55.121Z,38848
2018-09-30T08:20:35.693Z,35872
2018-09-30T08:21:16.274Z,30976
2018-09-30T08:21:56.843Z,25408
2018-09-30T08:22:37.408Z,21984
2018-09-30T08:23:18.009Z,20864
2018-09-30T08:23:58.651Z,20192
2018-09-30T08:24:39.200Z,19424
2018-09-30T08:25:19.768Z,18688
2018-09-30T08:26:00.330Z,17888
2018-09-30T08:26:41.013Z,17120
2018-09-30T08:27:21.578Z,16416
2018-09-30T08:28:02.152Z,15648
2018-09-30T08:28:42.755Z,14976
2018-09-30T08:29:23.331Z,14172
2018-09-30T08:30:03.919Z,13532
2018-09-30T08:30:44.601Z,12980
2018-09-30T08:31:25.051Z,12464
2018-09-30T08:32:05.683Z,12012
2018-09-30T08:32:46.301Z,11520
2018-09-30T08:33:26.883Z,11124
2018-09-30T08:34:07.469Z,10720
2018-09-30T08:34:48.044Z,10368
2018-09-30T08:35:28.599Z,10084
2018-09-30T08:36:09.197Z,9832
2018-09-30T08:36:49.797Z,9608
2018-09-30T08:37:30.408Z,9408
2018-09-30T08:38:10.956Z,9200
2018-09-30T08:38:51.520Z,8988
2018-09-30T08:39:32.132Z,8720
2018-09-30T08:40:12.777Z,8508
2018-09-30T08:40:53.423Z,8168
2018-09-30T08:41:33.999Z,7876
2018-09-30T08:42:14.566Z,7636
2018-09-30T08:42:55.130Z,7404
2018-09-30T08:43:35.798Z,7192
2018-09-30T08:44:16.375Z,7008
2018-09-30T08:44:56.887Z,6808
2018-09-30T08:45:37.505Z,6636
2018-09-30T08:46:18.038Z,6476
2018-09-30T08:46:58.613Z,6348
2018-09-30T08:47:39.196Z,6216
2018-09-30T08:48:19.753Z,6064
2018-09-30T08:49:00.321Z,5924
2018-09-30T08:49:40.917Z,5788
2018-09-30T08:50:21.480Z,5660
2018-09-30T08:51:02.074Z,5552
2018-09-30T08:51:42.637Z,5452
2018-09-30T08:52:23.238Z,5372
2018-09-30T08:53:03.820Z,5268
2018-09-30T08:53:44.440Z,5184
2018-09-30T08:54:24.965Z,5108
2018-09-30T08:55:05.556Z,5020
2018-09-30T08:55:46.135Z,4944
2018-09-30T08:56:26.680Z,4868
2018-09-30T08:57:07.237Z,4776
2018-09-30T08:57:47.828Z,4712
2018-09-30T08:58:28.400Z,4644
2018-09-30T08:59:08.978Z,4584
2018-09-30T08:59:49.524Z,4520
2018-09-30T09:00:30.106Z,4448
2018-09-30T09:01:10.678Z,4396
2018-09-30T09:01:51.293Z,4344
2018-09-30T09:02:31.952Z,4288
2018-09-30T09:03:12.506Z,4232
2018-09-30T09:05:45.758Z,4044
2018-09-30T09:06:26.319Z,4000
2018-09-30T09:07:07.052Z,3948
2018-09-30T09:07:47.631Z,3908
2018-09-30T09:08:28.257Z,3876
2018-09-30T09:09:08.799Z,3852
2018-09-30T09:09:49.399Z,3892
2018-09-30T09:10:29.952Z,3960
2018-09-30T09:11:10.534Z,4084
2018-09-30T09:11:51.100Z,4252
2018-09-30T09:12:31.655Z,4428
2018-09-30T09:13:12.231Z,4576
2018-09-30T09:13:52.806Z,4656
2018-09-30T09:14:33.355Z,4728
2018-09-30T09:15:13.918Z,4816
2018-09-30T09:15:54.478Z,4896
2018-09-30T09:16:35.205Z,4932
2018-09-30T09:17:15.710Z,4936
2018-09-30T09:17:56.317Z,4908
2018-09-30T09:18:36.912Z,4860
2018-09-30T09:19:17.546Z,4800
2018-09-30T09:19:58.179Z,4768
2018-09-30T09:20:38.775Z,4752
2018-09-30T09:21:19.363Z,4772
2018-09-30T09:21:59.887Z,4792
2018-09-30T09:22:40.531Z,4776
2018-09-30T09:23:21.053Z,4740
2018-09-30T09:24:01.620Z,4692
2018-09-30T09:24:42.188Z,4640
2018-09-30T09:25:22.729Z,4612
2018-09-30T09:26:03.521Z,4608
2018-09-30T09:26:44.104Z,4612
2018-09-30T09:27:24.674Z,4624
2018-09-30T09:28:05.358Z,4576
2018-09-30T09:28:45.932Z,4432
2018-09-30T09:29:26.492Z,4140